Flight Track Log - Related Links

Times and Time Zones

All times are in EDT time to prevent confusion due to time zone crossing. See the DAL268 flight status page for this flight to view local times or setup timezone preferences in your user account.

Time Position Orientation Groundspeed Altitude Reporting Facility
EDT Latitude Longitude Course Direction KTS MPH feet Rate Location/Type
Sat 02:28:12 PM 37.6170 -122.3740 38° Northeast 155 178  Level FlightAware ADS-B
Sat 02:28:37 PM 37.6350 -122.3620 28° Northeast 180 207 900 2,432 Climbing FlightAware ADS-B
Sat 02:28:49 PM 37.6430 -122.3530 42° Northeast 188 216 1,500 2,063 Climbing FlightAware ADS-B
Sat 02:29:09 PM 37.6550 -122.3330 53° Northeast 221 254 2,000 2,000 Climbing FlightAware ADS-B
Sat 02:29:31 PM 37.6690 -122.3100 52° Northeast 234 269 2,900 2,143 Climbing FlightAware ADS-B
Sat 02:29:51 PM 37.6820 -122.2890 52° Northeast 251 289 3,500 1,950 Climbing FlightAware ADS-B
Sat 02:30:11 PM 37.6980 -122.2640 51° Northeast 270 311 4,200 2,591 Climbing FlightAware ADS-B
Sat 02:30:35 PM 37.7190 -122.2350 48° Northeast 276 318 5,400 2,591 Climbing FlightAware ADS-B
Sat 02:30:55 PM 37.7360 -122.2100 49° Northeast 289 333 6,100 2,400 Climbing FlightAware ADS-B
Sat 02:31:15 PM 37.7510 -122.1810 57° Northeast 295 339 7,000 2,927 Climbing FlightAware ADS-B
Sat 02:31:36 PM 37.7650 -122.1520 59° Northeast 294 338 8,100 3,000 Climbing FlightAware ADS-B
Sat 02:31:59 PM 37.7820 -122.1180 58° Northeast 295 339 9,200 2,632 Climbing FlightAware ADS-B
Sat 02:32:33 PM 37.8080 -122.0660 58° Northeast 308 354 10,600 1,800 Climbing FlightAware ADS-B
Sat 02:33:09 PM 37.8300 -122.0040 66° East 347 399 11,300 1,200 Climbing FlightAware ADS-B
Sat 02:33:43 PM 37.8480 -121.9340 72° East 379 436 12,000 1,629 Climbing FlightAware ADS-B
Sat 02:34:19 PM 37.8670 -121.8580 72° East 389 448 13,200 2,118 Climbing FlightAware ADS-B
Sat 02:34:51 PM 37.8850 -121.7870 72° East 397 457 14,400 2,206 Climbing FlightAware ADS-B
Sat 02:35:27 PM 37.9050 -121.7060 73° East 404 465 15,700 2,113 Climbing FlightAware ADS-B
Sat 02:36:02 PM 37.9230 -121.6290 73° East 410 472 16,900 2,057 Climbing FlightAware ADS-B
Sat 02:36:37 PM 37.9440 -121.5450 72° East 417 480 18,100 1,944 Climbing FlightAware ADS-B
Sat 02:37:13 PM 37.9640 -121.4620 73° East 424 488 19,200 1,833 Climbing FlightAware ADS-B
Sat 02:37:49 PM 37.9860 -121.3730 73° East 433 498 20,300 1,818 Climbing FlightAware ADS-B
Sat 02:38:19 PM 38.0030 -121.3020 73° East 439 505 21,200 1,714 Climbing FlightAware ADS-B
Sat 02:38:59 PM 38.0270 -121.2020 73° East 447 514 22,300 1,579 Climbing FlightAware ADS-B
Sat 02:39:35 PM 38.0490 -121.1120 73° East 454 522 23,200 1,522 Climbing FlightAware ADS-B
Sat 02:40:06 PM 38.0680 -121.0330 73° East 459 528 24,000 1,588 Climbing FlightAware ADS-B
Sat 02:40:43 PM 38.0910 -120.9360 73° East 464 534 25,000 1,459 Climbing FlightAware ADS-B
Sat 02:41:20 PM 38.1140 -120.8400 73° East 470 541 25,800 1,455 Climbing FlightAware ADS-B
Sat 02:41:49 PM 38.1300 -120.7590 76° East 477 549 26,600 1,500 Climbing FlightAware ADS-B
Sat 02:42:28 PM 38.1480 -120.6560 77° East 480 552 27,500 1,263 Climbing FlightAware ADS-B
Sat 02:43:05 PM 38.1660 -120.5520 78° East 486 559 28,200 1,268 Climbing FlightAware ADS-B
Sat 02:43:39 PM 38.1830 -120.4570 77° East 488 562 29,000 1,543 Climbing FlightAware ADS-B
Sat 02:44:15 PM 38.2010 -120.3550 77° East 486 559 30,000 1,412 Climbing FlightAware ADS-B
Sat 02:44:47 PM 38.2160 -120.2690 77° East 489 563 30,600 1,343 Climbing FlightAware ADS-B
Sat 02:45:22 PM 38.2340 -120.1720 77° East 488 562 31,500 1,545 Climbing FlightAware ADS-B
Sat 02:45:53 PM 38.2490 -120.0880 77° East 485 558 32,300 1,479 Climbing FlightAware ADS-B
Sat 02:46:35 PM 38.2690 -119.9710 78° East 481 554 33,300 1,459 Climbing FlightAware ADS-B
Sat 02:47:07 PM 38.2850 -119.8840 77° East 478 550 34,100 1,412 Climbing FlightAware ADS-B
Sat 02:47:43 PM 38.3030 -119.7800 78° East 476 548 34,900 1,250 Climbing FlightAware ADS-B
Sat 02:48:19 PM 38.3190 -119.6880 77° East 472 543 35,600 1,099 Climbing FlightAware ADS-B
Sat 02:48:54 PM 38.3360 -119.5890 78° East 475 547 36,200 1,059 Climbing FlightAware ADS-B
Sat 02:49:27 PM 38.3510 -119.5010 78° East 471 542 36,800 696 Climbing FlightAware ADS-B
Sat 02:50:03 PM 38.3680 -119.4010 78° East 463 533 37,000 167 Climbing FlightAware ADS-B
Sat 02:50:39 PM 38.3830 -119.3110 78° East 459 528 37,000  Level FlightAware ADS-B
Sat 02:51:15 PM 38.4000 -119.2100 78° East 461 531 37,000  Level FlightAware ADS-B
Sat 02:51:47 PM 38.4130 -119.1300 78° East 465 535 37,000  Level FlightAware ADS-B
Sat 02:52:21 PM 38.4290 -119.0320 78° East 469 540 37,000  Level FlightAware ADS-B
Sat 02:52:59 PM 38.4450 -118.9330 78° East 473 544 37,000  Level FlightAware ADS-B
Sat 02:53:31 PM 38.4590 -118.8470 78° East 475 547 37,000  Level FlightAware ADS-B
Sat 02:54:09 PM 38.4770 -118.7380 78° East 477 549 37,000  Level FlightAware ADS-B
Sat 02:54:45 PM 38.4930 -118.6400 78° East 479 551 37,000  Level FlightAware ADS-B
Sat 02:55:17 PM 38.5070 -118.5510 79° East 480 552 37,000  Level FlightAware ADS-B
Sat 02:55:53 PM 38.5230 -118.4520 78° East 482 555 37,000  Level FlightAware ADS-B
Sat 02:56:30 PM 38.5390 -118.3490 79° East 482 555 37,000  Level FlightAware ADS-B
Sat 02:57:01 PM 38.5530 -118.2610 78° East 482 555 37,000  Level FlightAware ADS-B
Sat 02:57:38 PM 38.5690 -118.1590 79° East 482 555 37,000  Level FlightAware ADS-B
Sat 02:58:13 PM 38.5840 -118.0610 79° East 482 555 37,000  Level FlightAware ADS-B
Sat 02:58:43 PM 38.5970 -117.9790 79° East 482 555 37,000  Level FlightAware ADS-B
Sat 02:59:23 PM 38.6120 -117.8840 79° East 482 555 37,000  Level FlightAware ADS-B
Sat 02:59:59 PM 38.6260 -117.7980 78° East 482 555 37,000  Level FlightAware ADS-B
Sat 03:00:35 PM 38.6410 -117.7130 77° East 482 555 37,000  Level FlightAware ADS-B
Sat 03:01:11 PM 38.6550 -117.6270 78° East 482 555 37,000  Level FlightAware ADS-B
Sat 03:01:48 PM 38.6690 -117.5390 78° East 482 555 37,000  Level FlightAware ADS-B
Sat 03:02:22 PM 38.6830 -117.4590 77° East 482 555 37,000  Level FlightAware ADS-B
Sat 03:02:58 PM 38.6970 -117.3730 78° East 482 555 37,000  Level FlightAware ADS-B
Sat 03:03:35 PM 38.7120 -117.2850 78° East 482 555 37,000  Level FlightAware ADS-B
Sat 03:04:11 PM 38.7260 -117.2000 78° East 482 555 37,000  Level FlightAware ADS-B
Sat 03:04:46 PM 38.7460 -116.9790 83° East 469 540 37,000  Level FlightAware ADS-B
Sat 03:05:16 PM 38.7570 -116.9000 80° East 469 540 37,000  Level FlightAware ADS-B
Sat 03:05:55 PM 38.7710 -116.8090 79° East 469 540 37,000  Level FlightAware ADS-B
Sat 03:06:31 PM 38.7840 -116.7250 79° East 469 540 37,000  Level FlightAware ADS-B
Sat 03:07:07 PM 38.7960 -116.6420 79° East 469 540 37,000  Level FlightAware ADS-B
Sat 03:07:43 PM 38.8090 -116.5580 79° East 469 540 37,000  Level FlightAware ADS-B
Sat 03:08:19 PM 38.8220 -116.4750 79° East 469 540 37,000  Level FlightAware ADS-B
Sat 03:08:55 PM 38.8340 -116.3910 80° East 469 540 37,000  Level FlightAware ADS-B
Sat 03:09:31 PM 38.8470 -116.3070 79° East 469 540 37,000  Level FlightAware ADS-B
Sat 03:10:08 PM 38.8600 -116.2210 79° East 469 540 37,000  Level FlightAware ADS-B
Sat 03:10:44 PM 38.8730 -116.1370 79° East 469 540 37,000  Level FlightAware ADS-B
Sat 03:11:20 PM 38.8850 -116.0540 79° East 469 540 37,000  Level FlightAware ADS-B
Sat 03:11:56 PM 38.8980 -115.9700 79° East 469 540 37,000  Level FlightAware ADS-B
Sat 03:12:32 PM 38.9100 -115.8860 80° East 469 540 37,000  Level FlightAware ADS-B
Sat 03:13:09 PM 38.9240 -115.8000 78° East 469 540 37,000  Level FlightAware ADS-B
Sat 03:13:45 PM 38.9360 -115.7160 80° East 469 540 37,000  Level FlightAware ADS-B
Sat 03:14:21 PM 38.9490 -115.6330 79° East 469 540 37,000  Level FlightAware ADS-B
Sat 03:14:57 PM 38.9610 -115.5490 80° East 469 540 37,000  Level FlightAware ADS-B
Sat 03:16:20 PM 39.0036 -115.0808 80° East 478 550 37,000  Level Salt Lake Center
Sat 03:17:21 PM 39.0256 -114.9128 80° East 477 549 37,000  Level Salt Lake Center
Sat 03:18:23 PM 39.0461 -114.7472 81° East 472 543 37,000  Level Salt Lake Center
Sat 03:23:53 PM 39.1830 -113.8080 81° East 473 544 37,000  Level FlightAware ADS-B
Sat 03:24:29 PM 39.2090 -113.7130 71° East 472 543 37,000  Level FlightAware ADS-B
Sat 03:25:04 PM 39.2350 -113.6180 71° East 470 541 37,000  Level FlightAware ADS-B
Sat 03:25:36 PM 39.2590 -113.5330 70° East 470 541 37,000  Level FlightAware ADS-B
Sat 03:26:12 PM 39.2860 -113.4380 70° East 470 541 37,000  Level FlightAware ADS-B
Sat 03:26:48 PM 39.3120 -113.3440 70° East 471 542 37,000  Level FlightAware ADS-B
Sat 03:27:22 PM 39.3357 -113.2600 70° East 472 543 37,000  Level FlightAware ADS-B
Sat 03:27:53 PM 39.3600 -113.1730 70° East 473 544 37,000  Level FlightAware ADS-B
Sat 03:28:23 PM 39.3825 -113.0910 70° East 472 543 37,000  Level FlightAware ADS-B
Sat 03:29:22 PM 39.4250 -112.9360 70° East 472 543 37,000  Level FlightAware ADS-B
Sat 03:29:31 PM 39.4311 -112.9150 69° East 472 543 37,000  Level FlightAware ADS-B
Sat 03:30:03 PM 39.4544 -112.8310 70° East 473 544 37,000  Level FlightAware ADS-B
Sat 03:30:36 PM 39.4783 -112.7430 71° East 473 544 37,000  Level FlightAware ADS-B
Sat 03:31:12 PM 39.4990 -112.6700 70° East 472 543 37,000  Level FlightAware ADS-B
Sat 03:31:52 PM 39.5312 -112.5490 71° East 474 545 37,000  Level FlightAware ADS-B
Sat 03:32:23 PM 39.5539 -112.4640 71° East 475 547 37,000  Level FlightAware ADS-B
Sat 03:32:53 PM 39.5767 -112.3780 71° East 475 547 37,000  Level FlightAware ADS-B
Sat 03:33:37 PM 39.5910 -112.3420 63° Northeast 472 543 37,000  Level FlightAware ADS-B
Sat 03:34:06 PM 39.6300 -112.1780 73° East 475 547 37,000  Level FlightAware ADS-B
Sat 03:34:27 PM 39.6316 -112.1710 73° East 476 548 37,000  Level FlightAware ADS-B
Sat 03:34:58 PM 39.6631 -112.0510 71° East 478 550 37,000  Level FlightAware ADS-B
Sat 03:35:46 PM 39.7010 -111.9080 71° East 477 549 37,000  Level FlightAware ADS-B
Sat 03:36:28 PM 39.7294 -111.7980 71° East 477 549 37,000  Level FlightAware ADS-B
Sat 03:36:59 PM 39.7508 -111.7150 71° East 476 548 37,000  Level FlightAware ADS-B
Sat 03:37:29 PM 39.7717 -111.6350 71° East 476 548 37,000  Level FlightAware ADS-B
Sat 03:38:16 PM 39.8060 -111.5020 71° East 476 548 37,000  Level FlightAware ADS-B
Sat 03:38:51 PM 39.8259 -111.4230 72° East 476 548 37,000  Level FlightAware ADS-B
Sat 03:39:22 PM 39.8496 -111.3310 71° East 476 548 37,000  Level FlightAware ADS-B
Sat 03:39:59 PM 39.8576 -111.2990 72° East 476 548 37,000  Level FlightAware ADS-B
Sat 03:40:39 PM 39.9040 -111.1150 72° East 475 547 37,000  Level FlightAware ADS-B
Sat 03:41:21 PM 39.9327 -111.0030 71° East 476 548 37,000  Level FlightAware ADS-B
Sat 03:41:51 PM 39.9527 -110.9240 72° East 475 547 37,000  Level FlightAware ADS-B
Sat 03:43:00 PM 40.0000 -110.7330 72° East 475 547 37,000  Level FlightAware ADS-B
Sat 03:43:33 PM 40.0220 -110.6450 72° East 475 547 37,000  Level FlightAware ADS-B
Sat 03:44:06 PM 40.0430 -110.5600 72° East 475 547 37,000  Level FlightAware ADS-B
Sat 03:44:46 PM 40.0690 -110.4550 72° East 476 548 37,000  Level FlightAware ADS-B
Sat 03:45:22 PM 40.0940 -110.3540 72° East 476 548 37,000  Level FlightAware ADS-B
Sat 03:45:54 PM 40.1170 -110.2590 72° East 476 548 37,000  Level FlightAware ADS-B
Sat 03:46:28 PM 40.1400 -110.1660 72° East 476 548 37,000  Level FlightAware ADS-B
Sat 03:47:03 PM 40.1620 -110.0700 73° East 475 547 37,000  Level FlightAware ADS-B
Sat 03:47:47 PM 40.1890 -109.9490 74° East 474 545 37,000  Level FlightAware ADS-B
Sat 03:48:20 PM 40.2090 -109.8610 73° East 474 545 37,000  Level FlightAware ADS-B
Sat 03:48:56 PM 40.2310 -109.7570 74° East 474 545 37,000  Level FlightAware ADS-B
Sat 03:49:33 PM 40.2540 -109.6550 74° East 474 545 37,000  Level FlightAware ADS-B
Sat 03:50:13 PM 40.2770 -109.5500 74° East 474 545 37,000  Level FlightAware ADS-B
Sat 03:50:50 PM 40.3000 -109.4430 74° East 474 545 37,000  Level FlightAware ADS-B
Sat 03:51:23 PM 40.3180 -109.3620 74° East 473 544 37,000  Level FlightAware ADS-B
Sat 03:51:58 PM 40.3400 -109.2630 74° East 472 543 37,000  Level FlightAware ADS-B
Sat 03:52:33 PM 40.3580 -109.1790 74° East 471 542 37,000  Level FlightAware ADS-B
Sat 03:53:08 PM 40.3820 -109.0650 75° East 470 541 37,000  Level FlightAware ADS-B
Sat 03:53:43 PM 40.4030 -108.9690 74° East 469 540 37,000  Level FlightAware ADS-B
Sat 03:54:17 PM 40.4210 -108.8850 74° East 469 540 37,000  Level FlightAware ADS-B
Sat 03:54:57 PM 40.4450 -108.7680 75° East 469 540 37,000  Level FlightAware ADS-B
Sat 03:55:24 PM 40.4610 -108.6930 74° East 468 539 37,000  Level FlightAware ADS-B
Sat 03:56:04 PM 40.4850 -108.5820 74° East 469 540 37,000  Level FlightAware ADS-B
Sat 03:56:36 PM 40.5030 -108.4940 75° East 470 541 37,000  Level FlightAware ADS-B
Sat 03:57:11 PM 40.5220 -108.4040 74° East 470 541 37,000  Level FlightAware ADS-B
Sat 03:57:49 PM 40.5440 -108.2950 75° East 472 543 37,000  Level FlightAware ADS-B
Sat 03:58:21 PM 40.5610 -108.2140 75° East 473 544 37,000  Level FlightAware ADS-B
Sat 03:58:57 PM 40.5830 -108.1070 75° East 474 545 37,000  Level FlightAware ADS-B
Sat 03:59:34 PM 40.6010 -108.0180 75° East 474 545 37,000  Level FlightAware ADS-B
Sat 04:00:13 PM 40.6260 -107.8970 75° East 474 545 37,000  Level FlightAware ADS-B
Sat 04:00:50 PM 40.6460 -107.7960 75° East 475 547 37,000  Level FlightAware ADS-B
Sat 04:01:29 PM 40.6670 -107.6940 75° East 475 547 37,000  Level FlightAware ADS-B
Sat 04:02:00 PM 40.6850 -107.6020 76° East 476 548 37,000  Level FlightAware ADS-B
Sat 04:02:38 PM 40.7060 -107.4980 75° East 475 547 37,000  Level FlightAware ADS-B
Sat 04:03:07 PM 40.7240 -107.4080 75° East 475 547 37,000  Level FlightAware ADS-B
Sat 04:03:48 PM 40.7420 -107.3120 76° East 474 545 37,000  Level FlightAware ADS-B
Sat 04:04:18 PM 40.7600 -107.2260 75° East 474 545 37,000  Level FlightAware ADS-B
Sat 04:04:54 PM 40.7770 -107.1400 75° East 474 545 37,000  Level FlightAware ADS-B
Sat 04:05:30 PM 40.7950 -107.0540 75° East 474 545 37,000  Level FlightAware ADS-B
Sat 04:06:04 PM 40.8110 -106.9730 75° East 474 545 37,000  Level FlightAware ADS-B
Sat 04:06:40 PM 40.8280 -106.8880 75° East 474 545 37,000  Level FlightAware ADS-B
Sat 04:07:16 PM 40.8460 -106.8020 75° East 474 545 37,000  Level FlightAware ADS-B
Sat 04:07:52 PM 40.8630 -106.7160 75° East 474 545 37,000  Level FlightAware ADS-B
Sat 04:08:26 PM 40.8960 -106.5160 78° East 475 547 37,000  Level FlightAware ADS-B
Sat 04:09:03 PM 40.9160 -106.4130 76° East 476 548 37,000  Level FlightAware ADS-B
Sat 04:09:35 PM 40.9330 -106.3190 77° East 474 545 37,000  Level FlightAware ADS-B
Sat 04:10:05 PM 40.9490 -106.2360 76° East 475 547 37,000  Level FlightAware ADS-B
Sat 04:10:41 PM 40.9670 -106.1370 76° East 476 548 37,000  Level FlightAware ADS-B
Sat 04:11:23 PM 40.9890 -106.0170 76° East 476 548 37,000  Level FlightAware ADS-B
Sat 04:11:55 PM 41.0060 -105.9240 76° East 477 549 37,000  Level FlightAware ADS-B
Sat 04:12:33 PM 41.0260 -105.8190 76° East 479 551 37,000  Level FlightAware ADS-B
Sat 04:13:05 PM 41.0420 -105.7260 77° East 480 552 37,000  Level FlightAware ADS-B
Sat 04:13:41 PM 41.0610 -105.6210 76° East 481 554 37,000  Level FlightAware ADS-B
Sat 04:14:17 PM 41.0800 -105.5190 76° East 482 555 37,000  Level FlightAware ADS-B
Sat 04:14:51 PM 41.0970 -105.4240 77° East 485 558 37,000  Level FlightAware ADS-B
Sat 04:15:34 PM 41.1200 -105.2960 77° East 486 559 37,000  Level FlightAware ADS-B
Sat 04:16:06 PM 41.1360 -105.2040 77° East 486 559 37,000  Level FlightAware ADS-B
Sat 04:16:46 PM 41.1560 -105.0880 77° East 487 560 37,000  Level FlightAware ADS-B
Sat 04:17:20 PM 41.1730 -104.9940 76° East 488 562 37,000  Level FlightAware ADS-B
Sat 04:17:56 PM 41.1910 -104.8900 77° East 488 562 37,000  Level FlightAware ADS-B
Sat 04:18:30 PM 41.2090 -104.7880 77° East 488 562 37,000  Level FlightAware ADS-B
Sat 04:19:02 PM 41.2290 -104.6990 73° East 490 564 37,000  Level FlightAware ADS-B
Sat 04:19:38 PM 41.2540 -104.5910 73° East 490 564 37,000  Level FlightAware ADS-B
Sat 04:20:16 PM 41.2790 -104.4830 73° East 489 563 37,000  Level FlightAware ADS-B
Sat 04:20:48 PM 41.3010 -104.3900 72° East 489 563 37,000  Level FlightAware ADS-B
Sat 04:21:26 PM 41.3260 -104.2830 73° East 488 562 37,000  Level FlightAware ADS-B
Sat 04:22:02 PM 41.3500 -104.1790 73° East 488 562 37,000  Level FlightAware ADS-B
Sat 04:22:34 PM 41.3720 -104.0870 72° East 487 560 37,000  Level FlightAware ADS-B
Sat 04:23:08 PM 41.3940 -103.9890 73° East 486 559 37,000  Level FlightAware ADS-B
Sat 04:23:46 PM 41.4190 -103.8830 73° East 485 558 37,000  Level FlightAware ADS-B
Sat 04:24:20 PM 41.4410 -103.7830 74° East 485 558 37,000  Level FlightAware ADS-B
Sat 04:24:57 PM 41.4650 -103.6810 73° East 485 558 37,000  Level FlightAware ADS-B
Sat 04:25:28 PM 41.4860 -103.5880 73° East 485 558 37,000  Level FlightAware ADS-B
Sat 04:26:04 PM 41.5090 -103.4860 73° East 485 558 37,000  Level FlightAware ADS-B
Sat 04:26:41 PM 41.5320 -103.3840 73° East 485 558 37,000  Level FlightAware ADS-B
Sat 04:27:16 PM 41.5550 -103.2790 74° East 486 559 37,000  Level FlightAware ADS-B
Sat 04:27:48 PM 41.5740 -103.1920 74° East 486 559 37,000  Level FlightAware ADS-B
Sat 04:28:32 PM 41.6030 -103.0640 73° East 486 559 37,000  Level FlightAware ADS-B
Sat 04:29:06 PM 41.6220 -102.9800 73° East 487 560 37,000  Level FlightAware ADS-B
Sat 04:29:42 PM 41.6420 -102.8920 73° East 487 560 37,000  Level FlightAware ADS-B
Sat 04:30:18 PM 41.6620 -102.8040 73° East 487 560 37,000  Level FlightAware ADS-B
Sat 04:30:52 PM 41.6910 -102.6590 75° East 490 564 37,000  Level FlightAware ADS-B
Sat 04:31:38 PM 41.7170 -102.5360 74° East 490 564 37,000  Level FlightAware ADS-B
Sat 04:32:22 PM 41.7440 -102.4100 74° East 490 564 37,000  Level FlightAware ADS-B
Sat 04:32:56 PM 41.7690 -102.2960 74° East 491 565 37,000  Level FlightAware ADS-B
Sat 04:33:34 PM 41.7920 -102.1850 74° East 492 566 37,000  Level FlightAware ADS-B
Sat 04:34:15 PM 41.8160 -102.0740 74° East 492 566 37,000  Level FlightAware ADS-B
Sat 04:34:51 PM 41.8350 -101.9840 74° East 492 566 37,000  Level FlightAware ADS-B
Sat 04:35:27 PM 41.8540 -101.8940 74° East 492 566 37,000  Level FlightAware ADS-B
Sat 04:36:04 PM 41.8740 -101.8010 74° East 492 566 37,000  Level FlightAware ADS-B
Sat 04:36:40 PM 41.8930 -101.7110 74° East 492 566 37,000  Level FlightAware ADS-B
Sat 04:37:14 PM 41.9110 -101.6260 74° East 492 566 37,000  Level FlightAware ADS-B
Sat 04:37:50 PM 41.9300 -101.5360 74° East 492 566 37,000  Level FlightAware ADS-B
Sat 04:38:27 PM 41.9500 -101.4440 74° East 492 566 37,000  Level FlightAware ADS-B
Sat 04:39:03 PM 41.9690 -101.3540 74° East 492 566 37,000  Level FlightAware ADS-B
Sat 04:39:39 PM 41.9890 -101.2640 73° East 492 566 37,000  Level FlightAware ADS-B
Sat 04:40:14 PM 42.0070 -101.1760 75° East 492 566 37,000  Level FlightAware ADS-B
Sat 04:40:50 PM 42.0260 -101.0860 74° East 492 566 37,000  Level FlightAware ADS-B
Sat 04:41:26 PM 42.0460 -100.9960 73° East 492 566 37,000  Level FlightAware ADS-B
Sat 04:42:02 PM 42.0650 -100.9060 74° East 492 566 37,000  Level FlightAware ADS-B
Sat 04:42:39 PM 42.0850 -100.8130 74° East 492 566 37,000  Level FlightAware ADS-B
Sat 04:43:15 PM 42.1040 -100.7230 74° East 492 566 37,000  Level FlightAware ADS-B
Sat 04:47:47 PM 42.2939 -99.6599 76° East 493 567 37,000  Level FlightAware ADS-B
Sat 04:48:18 PM 42.3123 -99.5609 76° East 493 567 37,000  Level FlightAware ADS-B
Sat 04:48:50 PM 42.3296 -99.4674 76° East 493 567 37,000  Level FlightAware ADS-B
Sat 04:49:59 PM 42.3657 -99.2705 76° East 492 566 37,000  Level FlightAware ADS-B
Sat 04:50:53 PM 42.3968 -99.0993 76° East 492 566 37,000  Level FlightAware ADS-B
Sat 04:52:10 PM 42.4357 -98.8826 76° East 492 566 37,000  Level FlightAware ADS-B
Sat 04:52:41 PM 42.4541 -98.7791 76° East 492 566 37,000  Level FlightAware ADS-B
Sat 04:52:57 PM 42.4625 -98.7294 77° East 491 565 37,000  Level FlightAware ADS-B
Sat 04:54:46 PM 42.4852 -98.3999 85° East 489 563 37,000  Level FlightAware ADS-B
Sat 04:55:16 PM 42.4894 -98.3078 86° East 489 563 37,000  Level FlightAware ADS-B
Sat 04:56:30 PM 42.4999 -98.0810 86° East 491 565 37,000  Level FlightAware ADS-B
Sat 04:57:00 PM 42.5041 -97.9888 86° East 491 565 37,000  Level FlightAware ADS-B
Sat 04:57:30 PM 42.5083 -97.8963 86° East 492 566 37,000  Level FlightAware ADS-B
Sat 04:58:48 PM 42.5163 -97.7120 87° East 492 566 37,000  Level FlightAware ADS-B
Sat 04:59:18 PM 42.5224 -97.5672 87° East 492 566 37,000  Level FlightAware ADS-B
Sat 05:00:07 PM 42.5280 -97.4190 87° East 492 566 37,000  Level FlightAware ADS-B
Sat 05:00:42 PM 42.5320 -97.3240 87° East 492 566 37,000  Level FlightAware ADS-B
Sat 05:00:54 PM 42.5343 -97.2722 87° East 493 567 37,000  Level FlightAware ADS-B
Sat 05:01:24 PM 42.5379 -97.1789 87° East 494 568 37,000  Level FlightAware ADS-B
Sat 05:01:54 PM 42.5414 -97.0864 87° East 495 570 37,000  Level FlightAware ADS-B
Sat 05:02:33 PM 42.5460 -96.9670 87° East 493 567 37,000  Level FlightAware ADS-B
Sat 05:03:06 PM 42.5494 -96.8655 87° East 495 570 37,000  Level FlightAware ADS-B
Sat 05:03:39 PM 42.5530 -96.7630 87° East 495 570 37,000  Level FlightAware ADS-B
Sat 05:04:19 PM 42.5570 -96.6400 87° East 493 567 37,000  Level FlightAware ADS-B
Sat 05:04:56 PM 42.5610 -96.5280 87° East 494 568 37,000  Level FlightAware ADS-B
Sat 05:05:18 PM 42.5629 -96.4616 88° East 494 568 37,000  Level FlightAware ADS-B
Sat 05:05:49 PM 42.5660 -96.3627 88° East 494 568 37,000  Level FlightAware ADS-B
Sat 05:06:19 PM 42.5688 -96.2701 88° East 494 568 37,000  Level FlightAware ADS-B
Sat 05:07:16 PM 42.5740 -96.0930 88° East 494 568 37,000  Level FlightAware ADS-B
Sat 05:07:30 PM 42.5752 -96.0513 88° East 494 568 37,000  Level FlightAware ADS-B
Sat 05:08:00 PM 42.5778 -95.9571 88° East 494 568 37,000  Level FlightAware ADS-B
Sat 05:08:30 PM 42.5803 -95.8642 88° East 494 568 37,000  Level FlightAware ADS-B
Sat 05:09:02 PM 42.5830 -95.7670 88° East 494 568 37,000  Level FlightAware ADS-B
Sat 05:09:42 PM 42.5860 -95.6428 88° East 493 567 37,000  Level FlightAware ADS-B
Sat 05:10:12 PM 42.5883 -95.5484 88° East 493 567 37,000  Level FlightAware ADS-B
Sat 05:10:43 PM 42.5905 -95.4540 88° East 493 567 37,000  Level FlightAware ADS-B
Sat 05:11:23 PM 42.5930 -95.3310 88° East 492 566 37,000  Level FlightAware ADS-B
Sat 05:11:54 PM 42.5952 -95.2373 88° East 492 566 37,000  Level FlightAware ADS-B
Sat 05:12:24 PM 42.5971 -95.1434 88° East 492 566 37,000  Level FlightAware ADS-B
Sat 05:12:55 PM 42.5990 -95.0483 88° East 491 565 37,000  Level FlightAware ADS-B
Sat 05:13:40 PM 42.6020 -94.9110 88° East 491 565 37,000  Level FlightAware ADS-B
Sat 05:14:04 PM 42.6029 -94.8355 89° East 491 565 37,000  Level FlightAware ADS-B
Sat 05:14:36 PM 42.6046 -94.7385 89° East 490 564 37,000  Level FlightAware ADS-B
Sat 05:15:06 PM 42.6061 -94.6459 89° East 490 564 37,000  Level FlightAware ADS-B
Sat 05:16:00 PM 42.6090 -94.4790 89° East 491 565 37,000  Level FlightAware ADS-B
Sat 05:16:15 PM 42.6092 -94.4378 90° East 491 565 37,000  Level FlightAware ADS-B
Sat 05:16:45 PM 42.6105 -94.3419 89° East 492 566 37,000  Level FlightAware ADS-B
Sat 05:17:17 PM 42.6118 -94.2416 89° East 492 566 37,000  Level FlightAware ADS-B
Sat 05:17:49 PM 42.6130 -94.1470 89° East 492 566 37,000  Level FlightAware ADS-B
Sat 05:18:26 PM 42.6134 -94.0319 90° East 492 566 37,000  Level FlightAware ADS-B
Sat 05:19:04 PM 42.6142 -93.9145 89° East 493 567 37,000  Level FlightAware ADS-B
Sat 05:20:08 PM 42.6150 -93.7190 90° East 493 567 37,000  Level FlightAware ADS-B
Sat 05:20:40 PM 42.6160 -93.6180 89° East 493 567 37,000  Level FlightAware ADS-B
Sat 05:21:19 PM 42.6160 -93.4960 90° East 493 567 37,000  Level FlightAware ADS-B
Sat 05:21:51 PM 42.6160 -93.3990 90° East 493 567 37,000  Level FlightAware ADS-B
Sat 05:22:22 PM 42.6170 -93.3040 89° East 493 567 37,000  Level FlightAware ADS-B
Sat 05:23:03 PM 42.6170 -93.1780 90° East 492 566 37,000  Level FlightAware ADS-B
Sat 05:23:38 PM 42.6200 -93.0700 88° East 492 566 37,000  Level FlightAware ADS-B
Sat 05:24:15 PM 42.6230 -92.9550 88° East 491 565 37,000  Level FlightAware ADS-B
Sat 05:24:47 PM 42.6250 -92.8550 88° East 491 565 37,000  Level FlightAware ADS-B
Sat 05:25:21 PM 42.6270 -92.7510 88° East 491 565 37,000  Level FlightAware ADS-B
Sat 05:25:59 PM 42.6290 -92.6370 89° East 492 566 37,000  Level FlightAware ADS-B
Sat 05:26:34 PM 42.6310 -92.5280 89° East 492 566 37,000  Level FlightAware ADS-B
Sat 05:27:07 PM 42.6330 -92.4260 88° East 493 567 37,000  Level FlightAware ADS-B
Sat 05:27:43 PM 42.6340 -92.3180 89° East 492 566 37,000  Level FlightAware ADS-B
Sat 05:28:20 PM 42.6360 -92.2010 89° East 492 566 37,000  Level FlightAware ADS-B
Sat 05:28:53 PM 42.6380 -92.1000 88° East 492 566 37,000  Level FlightAware ADS-B
Sat 05:29:28 PM 42.6390 -91.9930 89° East 493 567 37,000  Level FlightAware ADS-B
Sat 05:30:04 PM 42.6400 -91.8810 89° East 493 567 37,000  Level FlightAware ADS-B
Sat 05:30:37 PM 42.6410 -91.7780 89° East 493 567 37,000  Level FlightAware ADS-B
Sat 05:31:12 PM 42.6430 -91.6740 88° East 492 566 37,000  Level FlightAware ADS-B
Sat 05:31:49 PM 42.6440 -91.5580 89° East 492 566 37,000  Level FlightAware ADS-B
Sat 05:32:25 PM 42.6450 -91.4450 89° East 491 565 37,000  Level FlightAware ADS-B
Sat 05:32:56 PM 42.6450 -91.3500 90° East 492 566 37,000  Level FlightAware ADS-B
Sat 05:33:32 PM 42.6460 -91.2390 89° East 491 565 37,000 411 Level FlightAware ADS-B
Sat 05:34:09 PM 42.6470 -91.1250 89° East 491 565 37,500 1,000 Climbing FlightAware ADS-B
Sat 05:34:44 PM 42.6470 -91.0180 90° East 490 564 38,200 985 Climbing FlightAware ADS-B
Sat 05:35:16 PM 42.6480 -90.9190 89° East 492 566 38,600 686 Climbing FlightAware ADS-B
Sat 05:35:54 PM 42.6480 -90.8030 90° East 495 570 39,000 338 Climbing FlightAware ADS-B
Sat 05:36:27 PM 42.6480 -90.6990 90° East 496 571 39,000  Level FlightAware ADS-B
Sat 05:37:02 PM 42.6480 -90.5920 90° East 496 571 39,000  Level FlightAware ADS-B
Sat 05:37:37 PM 42.6480 -90.4840 90° East 496 571 39,000  Level FlightAware ADS-B
Sat 05:38:14 PM 42.6480 -90.3770 90° East 497 572 39,000  Level FlightAware ADS-B
Sat 05:38:47 PM 42.6480 -90.2670 90° East 497 572 39,000  Level FlightAware ADS-B
Sat 05:39:21 PM 42.6470 -90.1600 91° East 498 573 39,000  Level FlightAware ADS-B
Sat 05:39:58 PM 42.6470 -90.0440 90° East 498 573 39,000  Level FlightAware ADS-B
Sat 05:40:32 PM 42.6460 -89.9370 91° East 496 571 39,000  Level FlightAware ADS-B
Sat 05:41:07 PM 42.6460 -89.8300 90° East 494 568 39,000  Level FlightAware ADS-B
Sat 05:41:42 PM 42.6450 -89.7210 91° East 492 566 39,000  Level FlightAware ADS-B
Sat 05:42:18 PM 42.6440 -89.6090 91° East 490 564 39,000  Level FlightAware ADS-B
Sat 05:42:54 PM 42.6430 -89.5010 91° East 488 562 39,000  Level FlightAware ADS-B
Sat 05:43:28 PM 42.6420 -89.3980 91° East 486 559 39,000  Level FlightAware ADS-B
Sat 05:43:56 PM 42.6410 -89.3110 91° East 485 558 39,000  Level FlightAware ADS-B
Sat 05:44:33 PM 42.6400 -89.1990 91° East 484 557 39,000  Level FlightAware ADS-B
Sat 05:45:05 PM 42.6390 -89.1030 91° East 484 557 39,000  Level FlightAware ADS-B
Sat 05:45:40 PM 42.6380 -88.9980 91° East 483 556 39,000  Level FlightAware ADS-B
Sat 05:46:17 PM 42.6360 -88.8860 91° East 484 557 39,000  Level FlightAware ADS-B
Sat 05:46:52 PM 42.6350 -88.7780 91° East 484 557 39,000  Level FlightAware ADS-B
Sat 05:47:25 PM 42.6330 -88.6790 92° East 485 558 39,000  Level FlightAware ADS-B
Sat 05:48:01 PM 42.6310 -88.5680 91° East 486 559 39,000  Level FlightAware ADS-B
Sat 05:48:38 PM 42.6290 -88.4560 91° East 487 560 39,000  Level FlightAware ADS-B
Sat 05:49:10 PM 42.6270 -88.3630 92° East 487 560 39,000  Level FlightAware ADS-B
Sat 05:49:45 PM 42.6250 -88.2540 91° East 488 562 39,000  Level FlightAware ADS-B
Sat 05:50:22 PM 42.6230 -88.1400 91° East 488 562 39,000  Level FlightAware ADS-B
Sat 05:50:57 PM 42.6210 -88.0340 91° East 488 562 39,000  Level FlightAware ADS-B
Sat 05:51:29 PM 42.6180 -87.9340 92° East 488 562 39,000  Level FlightAware ADS-B
Sat 05:52:06 PM 42.6160 -87.8250 91° East 487 560 39,000  Level FlightAware ADS-B
Sat 05:52:41 PM 42.6130 -87.7190 92° East 487 560 39,000  Level FlightAware ADS-B
Sat 05:53:14 PM 42.6110 -87.6260 92° East 486 559 39,000  Level FlightAware ADS-B
Sat 05:53:51 PM 42.6080 -87.5080 92° East 486 559 39,000  Level FlightAware ADS-B
Sat 05:54:25 PM 42.6050 -87.4040 92° East 486 559 39,000  Level FlightAware ADS-B
Sat 05:55:02 PM 42.6020 -87.2890 92° East 485 558 39,000  Level FlightAware ADS-B
Sat 05:55:33 PM 42.5990 -87.1930 92° East 485 558 39,000  Level FlightAware ADS-B
Sat 05:56:11 PM 42.5960 -87.0770 92° East 485 558 39,000  Level FlightAware ADS-B
Sat 05:56:47 PM 42.5920 -86.9670 93° East 485 558 39,000  Level FlightAware ADS-B
Sat 05:57:23 PM 42.5890 -86.8620 92° East 484 557 39,000  Level FlightAware ADS-B
Sat 05:57:53 PM 42.5860 -86.7720 93° East 484 557 39,000  Level FlightAware ADS-B
Sat 05:58:29 PM 42.5820 -86.6630 93° East 484 557 39,000  Level FlightAware ADS-B
Sat 05:59:03 PM 42.5790 -86.5620 92° East 483 556 39,000  Level FlightAware ADS-B
Sat 05:59:40 PM 42.5750 -86.4470 93° East 482 555 39,000  Level FlightAware ADS-B
Sat 06:00:17 PM 42.5710 -86.3350 93° East 482 555 39,000  Level FlightAware ADS-B
Sat 06:00:50 PM 42.5670 -86.2350 93° East 481 554 39,000  Level FlightAware ADS-B
Sat 06:01:26 PM 42.5630 -86.1270 93° East 481 554 39,000  Level FlightAware ADS-B
Sat 06:02:01 PM 42.5590 -86.0290 93° East 480 552 39,000  Level FlightAware ADS-B
Sat 06:02:38 PM 42.5540 -85.9130 93° East 479 551 39,000  Level FlightAware ADS-B
Sat 06:03:08 PM 42.5510 -85.8270 93° East 478 550 39,000  Level FlightAware ADS-B
Sat 06:03:46 PM 42.5460 -85.7130 93° East 476 548 39,000  Level FlightAware ADS-B
Sat 06:04:22 PM 42.5410 -85.6020 93° East 474 545 39,000  Level FlightAware ADS-B
Sat 06:04:58 PM 42.5370 -85.4980 93° East 473 544 39,000  Level FlightAware ADS-B
Sat 06:05:30 PM 42.5330 -85.4030 93° East 473 544 39,000  Level FlightAware ADS-B
Sat 06:06:04 PM 42.5280 -85.3010 94° East 473 544 39,000  Level FlightAware ADS-B
Sat 06:06:38 PM 42.5230 -85.2030 94° East 473 544 39,000  Level FlightAware ADS-B
Sat 06:07:12 PM 42.5180 -85.0970 94° East 472 543 39,000  Level FlightAware ADS-B
Sat 06:07:52 PM 42.5130 -84.9790 93° East 473 544 39,000  Level FlightAware ADS-B
Sat 06:08:28 PM 42.5080 -84.8810 94° East 474 545 39,000  Level FlightAware ADS-B
Sat 06:09:00 PM 42.5030 -84.7830 94° East 474 545 39,000  Level FlightAware ADS-B
Sat 06:09:36 PM 42.4970 -84.6740 94° East 474 545 39,000  Level FlightAware ADS-B
Sat 06:10:12 PM 42.4920 -84.5680 94° East 473 544 39,000  Level FlightAware ADS-B
Sat 06:10:42 PM 42.4870 -84.4780 94° East 473 544 39,000  Level FlightAware ADS-B
Sat 06:11:21 PM 42.4810 -84.3660 94° East 473 544 39,000  Level FlightAware ADS-B
Sat 06:11:55 PM 42.4760 -84.2640 94° East 473 544 39,000  Level FlightAware ADS-B
Sat 06:12:27 PM 42.4700 -84.1680 95° East 473 544 39,000  Level FlightAware ADS-B
Sat 06:13:05 PM 42.4640 -84.0560 94° East 473 544 39,000  Level FlightAware ADS-B
Sat 06:13:39 PM 42.4580 -83.9560 95° East 473 544 39,000  Level FlightAware ADS-B
Sat 06:14:13 PM 42.4520 -83.8570 95° East 472 543 39,000  Level FlightAware ADS-B
Sat 06:14:49 PM 42.4460 -83.7500 94° East 472 543 39,000  Level FlightAware ADS-B
Sat 06:15:25 PM 42.4400 -83.6440 94° East 472 543 39,000  Level FlightAware ADS-B
Sat 06:15:57 PM 42.4340 -83.5490 95° East 472 543 39,000  Level FlightAware ADS-B
Sat 06:16:33 PM 42.4270 -83.4430 95° East 472 543 39,000  Level FlightAware ADS-B
Sat 06:17:09 PM 42.4210 -83.3360 94° East 472 543 39,000  Level FlightAware ADS-B
Sat 06:17:43 PM 42.4150 -83.2380 95° East 473 544 39,000  Level FlightAware ADS-B
Sat 06:18:17 PM 42.4080 -83.1390 95° East 473 544 39,000  Level FlightAware ADS-B
Sat 06:18:53 PM 42.4010 -83.0340 95° East 473 544 39,000  Level FlightAware ADS-B
Sat 06:19:29 PM 42.3940 -82.9250 95° East 474 545 39,000  Level FlightAware ADS-B
Sat 06:20:05 PM 42.3870 -82.8260 95° East 475 547 39,000  Level FlightAware ADS-B
Sat 06:20:37 PM 42.3810 -82.7250 95° East 476 548 39,000  Level FlightAware ADS-B
Sat 06:21:13 PM 42.3750 -82.6230 95° East 474 545 39,000  Level FlightAware ADS-B
Sat 06:21:49 PM 42.3720 -82.5150 92° East 475 547 39,000  Level FlightAware ADS-B
Sat 06:22:25 PM 42.3680 -82.4060 93° East 476 548 39,000  Level FlightAware ADS-B
Sat 06:22:59 PM 42.3640 -82.3040 93° East 476 548 39,000  Level FlightAware ADS-B
Sat 06:23:35 PM 42.3590 -82.2000 94° East 477 549 39,000  Level FlightAware ADS-B
Sat 06:24:07 PM 42.3560 -82.1190 93° East 478 550 39,000  Level FlightAware ADS-B
Sat 06:24:50 PM 42.3500 -81.9820 93° East 478 550 39,000  Level FlightAware ADS-B
Sat 06:25:30 PM 42.3440 -81.8600 94° East 479 551 39,000  Level FlightAware ADS-B
Sat 06:26:05 PM 42.3400 -81.7570 93° East 480 552 39,000  Level FlightAware ADS-B
Sat 06:26:44 PM 42.3340 -81.6360 94° East 481 554 39,000  Level FlightAware ADS-B
Sat 06:27:20 PM 42.3290 -81.5370 94° East 481 554 39,000  Level FlightAware ADS-B
Sat 06:27:59 PM 42.3240 -81.4240 93° East 480 552 39,000  Level FlightAware ADS-B
Sat 06:28:34 PM 42.3190 -81.3150 94° East 480 552 39,000  Level FlightAware ADS-B
Sat 06:29:09 PM 42.3140 -81.2140 94° East 482 555 39,000  Level FlightAware ADS-B
Sat 06:29:44 PM 42.3080 -81.1070 94° East 482 555 39,000  Level FlightAware ADS-B
Sat 06:30:19 PM 42.3030 -80.9990 94° East 482 555 39,000  Level FlightAware ADS-B
Sat 06:30:54 PM 42.2970 -80.8970 95° East 482 555 39,000  Level FlightAware ADS-B
Sat 06:31:29 PM 42.2890 -80.7990 96° East 485 558 39,000  Level FlightAware ADS-B
Sat 06:32:04 PM 42.2760 -80.6840 99° East 487 560 39,000  Level FlightAware ADS-B
Sat 06:32:39 PM 42.2630 -80.5810 100° East 487 560 39,000  Level FlightAware ADS-B
Sat 06:33:14 PM 42.2490 -80.4760 100° East 488 562 39,000  Level FlightAware ADS-B
Sat 06:33:49 PM 42.2340 -80.3730 101° East 489 563 39,000  Level FlightAware ADS-B
Sat 06:34:24 PM 42.2200 -80.2670 100° East 489 563 39,000  Level FlightAware ADS-B
Sat 06:34:59 PM 42.2060 -80.1680 101° East 489 563 39,000  Level FlightAware ADS-B
Sat 06:35:34 PM 42.1910 -80.0580 100° East 489 563 39,000  Level FlightAware ADS-B
Sat 06:36:09 PM 42.1770 -79.9550 100° East 488 562 39,000  Level FlightAware ADS-B
Sat 06:36:44 PM 42.1630 -79.8580 101° East 488 562 39,000  Level FlightAware ADS-B
Sat 06:37:19 PM 42.1480 -79.7490 100° East 487 560 39,000  Level FlightAware ADS-B
Sat 06:37:59 PM 42.1310 -79.6260 101° East 487 560 39,000  Level FlightAware ADS-B
Sat 06:38:34 PM 42.1160 -79.5230 101° East 487 560 39,000  Level FlightAware ADS-B
Sat 06:39:14 PM 42.0990 -79.4040 101° East 487 560 39,000  Level FlightAware ADS-B
Sat 06:39:44 PM 42.0870 -79.3170 101° East 487 560 39,000  Level FlightAware ADS-B
Sat 06:40:24 PM 42.0700 -79.2020 101° East 487 560 39,000  Level FlightAware ADS-B
Sat 06:40:54 PM 42.0560 -79.1080 101° East 487 560 39,000  Level FlightAware ADS-B
Sat 06:41:29 PM 42.0410 -79.0060 101° East 487 560 39,000  Level FlightAware ADS-B
Sat 06:42:04 PM 42.0260 -78.9010 101° East 487 560 39,000  Level FlightAware ADS-B
Sat 06:42:39 PM 42.0110 -78.8050 102° East 486 559 39,000  Level FlightAware ADS-B
Sat 06:43:14 PM 41.9940 -78.6920 101° East 484 557 39,000  Level FlightAware ADS-B
Sat 06:43:49 PM 41.9790 -78.5890 101° East 483 556 39,000  Level FlightAware ADS-B
Sat 06:44:29 PM 41.9610 -78.4740 102° East 481 554 39,000  Level FlightAware ADS-B
Sat 06:44:59 PM 41.9480 -78.3850 101° East 479 551 39,000  Level FlightAware ADS-B
Sat 06:45:39 PM 41.9300 -78.2700 102° East 477 549 39,000  Level FlightAware ADS-B
Sat 06:46:09 PM 41.9170 -78.1810 101° East 476 548 39,000  Level FlightAware ADS-B
Sat 06:46:44 PM 41.9010 -78.0800 102° East 475 547 39,000  Level FlightAware ADS-B
Sat 06:47:19 PM 41.8850 -77.9810 102° East 474 545 39,000  Level FlightAware ADS-B
Sat 06:47:54 PM 41.8700 -77.8860 102° East 474 545 39,000  Level FlightAware ADS-B
Sat 06:48:29 PM 41.8480 -77.7860 106° East 478 550 39,000  Level FlightAware ADS-B
Sat 06:49:04 PM 41.8210 -77.6850 110° East 478 550 39,000  Level FlightAware ADS-B
Sat 06:49:44 PM 41.7920 -77.5740 109° East 478 550 39,000  Level FlightAware ADS-B
Sat 06:50:14 PM 41.7690 -77.4880 110° East 479 551 39,000  Level FlightAware ADS-B
Sat 06:50:49 PM 41.7440 -77.3960 110° East 481 554 39,000  Level FlightAware ADS-B
Sat 06:51:24 PM 41.7170 -77.2950 110° East 482 555 39,000  Level FlightAware ADS-B
Sat 06:51:59 PM 41.6930 -77.2030 109° East 481 554 39,000  Level FlightAware ADS-B
Sat 06:52:34 PM 41.6650 -77.0990 110° East 481 554 39,000  Level FlightAware ADS-B
Sat 06:53:09 PM 41.6390 -77.0030 110° East 481 554 39,000  Level FlightAware ADS-B
Sat 06:53:49 PM 41.6070 -76.8880 110° East 480 552 39,000  Level FlightAware ADS-B
Sat 06:54:19 PM 41.5840 -76.8040 110° East 480 552 39,000  Level FlightAware ADS-B
Sat 06:54:54 PM 41.5580 -76.7060 109° East 480 552 39,000 -320 Level FlightAware ADS-B
Sat 06:55:34 PM 41.5270 -76.5970 111° Southeast 483 556 38,600 -1,200 Descending FlightAware ADS-B
Sat 06:56:04 PM 41.5060 -76.5180 110° East 496 571 37,600 -1,569 Descending FlightAware ADS-B
Sat 06:56:39 PM 41.4780 -76.4170 110° East 495 570 36,900 -1,200 Descending FlightAware ADS-B
Sat 06:57:14 PM 41.4480 -76.3100 110° East 496 571 36,200 -1,200 Descending FlightAware ADS-B
Sat 06:57:49 PM 41.4210 -76.2140 111° Southeast 497 572 35,500 -1,315 Descending FlightAware ADS-B
Sat 06:58:27 PM 41.3870 -76.0930 110° East 500 575 34,600 -1,541 Descending FlightAware ADS-B
Sat 06:59:03 PM 41.3580 -75.9910 111° Southeast 499 574 33,600 -1,941 Descending FlightAware ADS-B
Sat 06:59:35 PM 41.3320 -75.8970 110° East 500 575 32,400 -2,118 Descending FlightAware ADS-B
Sat 07:00:11 PM 41.3040 -75.7970 110° East 489 563 31,200 -2,500 Descending FlightAware ADS-B
Sat 07:00:47 PM 41.2740 -75.6940 111° Southeast 492 566 29,400 -3,000 Descending FlightAware ADS-B
Sat 07:01:21 PM 41.2440 -75.6010 113° Southeast 493 567 27,700 -3,257 Descending FlightAware ADS-B
Sat 07:01:57 PM 41.2120 -75.5070 114° Southeast 497 572 25,600 -3,429 Descending FlightAware ADS-B
Sat 07:02:31 PM 41.1790 -75.4070 114° Southeast 492 566 23,700 -2,229 Descending FlightAware ADS-B
Sat 07:03:07 PM 41.1460 -75.3090 114° Southeast 482 555 23,000 -583 Descending FlightAware ADS-B
Sat 07:03:43 PM 41.1130 -75.2140 115° Southeast 479 551 23,000  Level FlightAware ADS-B
Sat 07:04:11 PM 41.0870 -75.1380 114° Southeast 479 551 23,000  Level FlightAware ADS-B
Sat 07:04:47 PM 41.0540 -75.0400 114° Southeast 483 556 23,000  Level FlightAware ADS-B
Sat 07:05:19 PM 41.0260 -74.9570 114° Southeast 457 526 23,000 -348 Level FlightAware ADS-B
Sat 07:05:56 PM 40.9990 -74.8650 111° Southeast 414 476 22,600 -870 Descending FlightAware ADS-B
Sat 07:06:28 PM 40.9870 -74.7870 101° East 386 444 22,000 -947 Descending FlightAware ADS-B
Sat 07:07:12 PM 40.9760 -74.6890 98° East 357 411 21,400 -889 Descending FlightAware ADS-B
Sat 07:07:22 PM 40.9738 -74.6670 98° East 355 409 21,200 -600 Descending FlightAware ADS-B
Sat 07:07:52 PM 40.9669 -74.6011 98° East 362 417 21,000 -400 Descending FlightAware ADS-B
Sat 07:08:22 PM 40.9600 -74.5350 98° East 362 417 20,800 -1,182 Descending FlightAware ADS-B
Sat 07:08:58 PM 40.9510 -74.4560 99° East 370 426 19,700 -1,543 Descending FlightAware ADS-B
Sat 07:09:32 PM 40.9420 -74.3750 98° East 409 471 19,000 -750 Descending FlightAware ADS-B
Sat 07:09:54 PM 40.9290 -74.3220 108° East 419 482 19,000  Level FlightAware ADS-B
Sat 07:10:10 PM 40.9140 -74.2870 120° Southeast 423 487 19,000  Level FlightAware ADS-B
Sat 07:10:30 PM 40.8890 -74.2490 131° Southeast 425 489 19,000  Level FlightAware ADS-B
Sat 07:11:02 PM 40.8420 -74.1910 137° Southeast 423 487 19,000 -353 Level FlightAware ADS-B
Sat 07:11:38 PM 40.7910 -74.1290 137° Southeast 417 480 18,600 -1,297 Descending FlightAware ADS-B
Sat 07:12:16 PM 40.7382 -74.0631 137° Southeast 407 468 17,400 -2,000 Descending FlightAware ADS-B
Sat 07:12:50 PM 40.6910 -74.0060 137° Southeast 401 461 16,200 -1,971 Descending FlightAware ADS-B
Sat 07:13:26 PM 40.6440 -73.9470 136° Southeast 390 449 15,100 -1,900 Descending FlightAware ADS-B
Sat 07:13:50 PM 40.6128 -73.9085 137° Southeast 402 463 14,300 -2,029 Descending FlightAware ADS-B
Sat 07:14:34 PM 40.5600 -73.8410 136° Southeast 340 391 12,800 -1,923 Descending FlightAware ADS-B
Sat 07:15:08 PM 40.5230 -73.7960 137° Southeast 318 366 11,800 -2,083 Descending FlightAware ADS-B
Sat 07:15:46 PM 40.4830 -73.7440 135° Southeast 303 349 10,300 -2,143 Descending FlightAware ADS-B
Sat 07:16:04 PM 40.4650 -73.7210 136° Southeast 304 350 9,800 -1,650 Descending FlightAware ADS-B
Sat 07:16:26 PM 40.4430 -73.6920 135° Southeast 305 351 9,200 -1,600 Descending FlightAware ADS-B
Sat 07:16:34 PM 40.4370 -73.6790 121° Southeast 306 352 9,000 -1,125 Descending FlightAware ADS-B
Sat 07:16:42 PM 40.4330 -73.6650 111° Southeast 303 349 8,900 -1,000 Descending FlightAware ADS-B
Sat 07:16:52 PM 40.4310 -73.6500 100° East 299 344 8,700 -1,313 Descending FlightAware ADS-B
Sat 07:17:14 PM 40.4380 -73.6120 76° East 288 331 8,200 -1,286 Descending FlightAware ADS-B
Sat 07:17:34 PM 40.4480 -73.5780 69° East 287 330 7,800 -1,333 Descending FlightAware ADS-B
Sat 07:17:50 PM 40.4590 -73.5570 55° Northeast 280 322 7,400 -1,500 Descending FlightAware ADS-B
Sat 07:17:58 PM 40.4670 -73.5480 41° Northeast 276 318 7,200 -1,286 Descending FlightAware ADS-B
Sat 07:18:18 PM 40.4890 -73.5310 30° Northeast 272 313 6,800 -1,171 Descending FlightAware ADS-B
Sat 07:18:39 PM 40.5120 -73.5130 31° Northeast 266 306 6,400 -1,050 Descending FlightAware ADS-B
Sat 07:18:58 PM 40.5320 -73.4980 30° Northeast 264 304 6,100 -1,200 Descending FlightAware ADS-B
Sat 07:19:14 PM 40.5500 -73.4850 29° Northeast 264 304 5,700 -1,500 Descending FlightAware ADS-B
Sat 07:19:22 PM 40.5580 -73.4790 30° Northeast 263 303 5,500 -1,500 Descending FlightAware ADS-B
Sat 07:19:30 PM 40.5680 -73.4750 17° North 261 300 5,300 -1,286 Descending FlightAware ADS-B
Sat 07:19:50 PM 40.5910 -73.4690 11° North 261 300 4,900 -750 Descending FlightAware ADS-B
Sat 07:20:02 PM 40.6060 -73.4660 North 261 300 4,900  Level FlightAware ADS-B
Sat 07:20:22 PM 40.6290 -73.4620 North 260 299 4,900  Level FlightAware ADS-B
Sat 07:20:37 PM 40.6470 -73.4590 North 260 299 4,900  Level FlightAware ADS-B
Sat 07:20:58 PM 40.6700 -73.4680 343° North 254 292 4,900 -162 Level FlightAware ADS-B
Sat 07:21:14 PM 40.6860 -73.4820 326° Northwest 254 292 4,800 -833 Descending FlightAware ADS-B
Sat 07:21:34 PM 40.7060 -73.4990 327° Northwest 253 291 4,400 -1,200 Descending FlightAware ADS-B
Sat 07:21:54 PM 40.7240 -73.5150 326° Northwest 253 291 4,000 -1,200 Descending FlightAware ADS-B
Sat 07:22:14 PM 40.7440 -73.5330 326° Northwest 253 291 3,600 -1,286 Descending FlightAware ADS-B
Sat 07:22:22 PM 40.7520 -73.5410 323° Northwest 252 290 3,400 -1,125 Descending FlightAware ADS-B
Sat 07:22:30 PM 40.7590 -73.5510 313° West 249 287 3,300 -643 Descending FlightAware ADS-B
Sat 07:22:50 PM 40.7720 -73.5740 307° West 240 276 3,100 -500 Descending FlightAware ADS-B
Sat 07:23:06 PM 40.7830 -73.5930 307° West 232 267 3,000 -324 Descending FlightAware ADS-B
Sat 07:23:27 PM 40.7950 -73.6140 307° West 221 254 2,900 -353 Descending FlightAware ADS-B
Sat 07:23:40 PM 40.8030 -73.6310 302° West 211 243 2,800  Descending FlightAware ADS-B
Sat 07:23:48 PM 40.8040 -73.6390 279° West 203 234 2,900 167 Climbing FlightAware ADS-B
Sat 07:24:16 PM 40.7910 -73.6660 238° Southwest 200 230 2,900  Level FlightAware ADS-B
Sat 07:24:36 PM 40.7750 -73.6770 208° Southwest 193 222 2,900 -439 Level FlightAware ADS-B
Sat 07:24:57 PM 40.7580 -73.6880 206° Southwest 191 220 2,600 -1,024 Descending FlightAware ADS-B
Sat 07:25:17 PM 40.7430 -73.6980 207° Southwest 187 215 2,200 -1,116 Descending FlightAware ADS-B
Sat 07:25:40 PM 40.7260 -73.7100 208° Southwest 166 191 1,800 -977 Descending FlightAware ADS-B
Sat 07:26:00 PM 40.7130 -73.7190 208° Southwest 151 174 1,500 -750 Descending FlightAware ADS-B
Sat 07:26:20 PM 40.7010 -73.7280 210° Southwest 137 158 1,300 -682 Descending FlightAware ADS-B
Sat 07:26:44 PM 40.6880 -73.7370 208° Southwest 139 160 1,000 -818 Descending FlightAware ADS-B
Sat 07:27:04 PM 40.6760 -73.7440 204° Southwest 136 157 700 -900 Descending FlightAware ADS-B
Sat 07:27:24 PM 40.6650 -73.7520 209° Southwest 136 157 400 -732 Descending FlightAware ADS-B
Sat 07:27:45 PM 40.6540 -73.7610 212° Southwest 134 154 200 -571 Descending FlightAware ADS-B
Sat 07:28:08 PM 40.6410 -73.7710 210° Southwest 136 157 -522 Descending FlightAware ADS-B
Sat 07:28:28 PM 40.6320 -73.7780 211° Southwest 86 99  Level FlightAware ADS-B

Login

Don't have an account? Register now (free) for customized features, flight alerts, and more!